Time;durP1;ratioP1;P1;durP2;ratioP2;P2;SDS_P1;SDS_P2;PMS_P1;PMS_P2;Temp;Humidity;BMP_temperature;BMP_pressure;BME280_temperature;BME280_humidity;BME280_pressure;Samples;Min_cycle;Max_cycle;Signal;HPM_P1;HPM_P2
2023/06/05 00:01:37;;;;;;;5.50;2.33;;;15.00;78.20;;;;;;5110429;27;20491;-73
2023/06/05 00:04:04;;;;;;;3.55;2.50;;;14.90;78.00;;;;;;5105534;28;20039;-74
2023/06/05 00:06:30;;;;;;;3.30;2.15;;;15.00;78.10;;;;;;5104612;28;20035;-74
2023/06/05 00:08:57;;;;;;;2.92;1.98;;;14.90;78.10;;;;;;5115319;28;20491;-74
2023/06/05 00:11:23;;;;;;;3.97;1.98;;;14.90;78.10;;;;;;5094146;28;20032;-73
2023/06/05 00:13:49;;;;;;;6.65;2.55;;;14.90;78.20;;;;;;5094734;28;20032;-74
2023/06/05 00:16:15;;;;;;;2.67;2.30;;;14.90;78.20;;;;;;5094327;28;20039;-70
2023/06/05 00:18:43;;;;;;;5.40;2.08;;;14.80;78.40;;;;;;5094512;28;20476;-73
2023/06/05 00:21:09;;;;;;;3.17;2.25;;;14.80;78.40;;;;;;5090024;28;20039;-73
2023/06/05 00:23:35;;;;;;;3.70;2.15;;;14.80;78.60;;;;;;5092278;28;20120;-74
2023/06/05 00:26:01;;;;;;;5.50;2.08;;;14.70;79.00;;;;;;5094839;28;20058;-75
2023/06/05 00:28:27;;;;;;;3.28;2.33;;;14.70;79.20;;;;;;5093148;28;20099;-75
2023/06/05 00:30:52;;;;;;;4.22;2.60;;;14.60;79.30;;;;;;5094553;28;20039;-73
2023/06/05 00:33:18;;;;;;;2.95;2.20;;;14.60;79.40;;;;;;5093332;28;20498;-73
2023/06/05 00:35:43;;;;;;;4.47;2.00;;;14.60;79.30;;;;;;5094482;28;20024;-75
2023/06/05 00:38:09;;;;;;;7.10;2.58;;;14.60;79.40;;;;;;5088194;28;20028;-74
2023/06/05 00:40:34;;;;;;;3.13;2.15;;;14.50;79.70;;;;;;5093256;28;20024;-74
2023/06/05 00:43:00;;;;;;;2.55;1.92;;;14.40;79.90;;;;;;5094690;28;20032;-73
2023/06/05 00:45:26;;;;;;;2.50;2.20;;;14.40;80.20;;;;;;5091913;28;20028;-72
2023/06/05 00:47:52;;;;;;;4.63;2.20;;;14.30;80.40;;;;;;5085585;28;20028;-74
2023/06/05 00:50:21;;;;;;;3.05;2.17;;;14.30;80.90;;;;;;5093374;28;20430;-74
2023/06/05 00:52:47;;;;;;;3.53;2.45;;;14.30;81.00;;;;;;5094377;28;20028;-74
2023/06/05 00:55:13;;;;;;;3.95;2.45;;;14.20;80.90;;;;;;5093241;28;20469;-69
2023/06/05 00:57:39;;;;;;;3.33;2.45;;;14.20;80.90;;;;;;5094341;28;20028;-75
2023/06/05 01:00:08;;;;;;;3.60;2.42;;;14.20;81.10;;;;;;5093871;28;20484;-75
2023/06/05 01:02:35;;;;;;;4.25;2.17;;;14.20;81.30;;;;;;5092827;28;20093;-75
2023/06/05 01:05:02;;;;;;;6.15;2.30;;;14.20;81.20;;;;;;5079430;28;20043;-74
2023/06/05 01:07:29;;;;;;;4.18;2.42;;;14.20;81.40;;;;;;5093090;28;20027;-75
2023/06/05 01:09:55;;;;;;;3.97;2.35;;;14.10;81.40;;;;;;5089735;28;20055;-75
2023/06/05 01:12:27;;;;;;;5.80;2.25;;;14.10;81.50;;;;;;5094729;28;20480;-75
2023/06/05 01:14:58;;;;;;;5.32;2.10;;;14.10;81.70;;;;;;5093593;28;20035;-76
2023/06/05 01:17:25;;;;;;;4.07;2.42;;;;;;;;;;5103363;28;20548;-75
2023/06/05 01:19:52;;;;;;;2.78;2.10;;;14.00;81.40;;;;;;5113149;28;20141;-69
2023/06/05 01:22:18;;;;;;;3.55;2.13;;;14.00;81.90;;;;;;5105448;27;20027;-75
2023/06/05 01:24:43;;;;;;;3.17;1.98;;;14.00;82.30;;;;;;5109795;28;20393;-75
2023/06/05 01:27:15;;;;;;;4.93;2.47;;;13.90;82.50;;;;;;5093736;28;20024;-75
2023/06/05 01:29:52;;;;;;;3.42;2.20;;;13.90;82.60;;;;;;5108998;28;20028;-74
2023/06/05 01:32:44;;;;;;;2.58;1.92;;;13.90;82.60;;;;;;5093225;28;20533;-73
2023/06/05 01:35:16;;;;;;;3.28;2.35;;;13.90;82.80;;;;;;5102546;28;20056;-74
2023/06/05 01:37:48;;;;;;;2.67;2.00;;;13.80;82.80;;;;;;5104218;28;20766;-74
2023/06/05 01:40:15;;;;;;;5.18;2.30;;;13.80;83.00;;;;;;5106200;28;20484;-69
2023/06/05 01:42:42;;;;;;;2.90;2.35;;;13.80;83.40;;;;;;5093515;28;20028;-75
2023/06/05 01:45:10;;;;;;;4.38;2.85;;;13.80;83.60;;;;;;5100043;28;20023;-75
2023/06/05 01:47:37;;;;;;;3.88;2.20;;;13.70;83.50;;;;;;5099067;28;20028;-75
2023/06/05 01:50:04;;;;;;;4.90;3.33;;;13.70;83.70;;;;;;5093315;28;20036;-76
2023/06/05 01:52:30;;;;;;;4.20;2.55;;;13.70;83.80;;;;;;5092746;28;20095;-75
2023/06/05 01:54:59;;;;;;;3.95;2.40;;;13.70;83.90;;;;;;5108141;27;20098;-75
2023/06/05 01:57:27;;;;;;;2.35;2.10;;;13.60;84.20;;;;;;5111786;28;20107;-75
2023/06/05 01:59:53;;;;;;;4.40;2.38;;;13.60;84.30;;;;;;5101362;28;20028;-75
2023/06/05 02:02:21;;;;;;;3.17;2.20;;;13.50;84.50;;;;;;5092303;28;20030;-75
2023/06/05 02:04:47;;;;;;;3.10;2.30;;;13.50;84.80;;;;;;5101133;28;20506;-76
2023/06/05 02:07:15;;;;;;;3.65;2.30;;;13.40;85.00;;;;;;5097645;28;20035;-70
2023/06/05 02:09:42;;;;;;;3.85;2.28;;;13.40;85.10;;;;;;5098735;28;20073;-75
2023/06/05 02:12:08;;;;;;;2.75;1.90;;;13.40;85.20;;;;;;5106644;27;20050;-76
2023/06/05 02:14:37;;;;;;;2.53;2.05;;;13.30;85.50;;;;;;5099761;28;20595;-76
2023/06/05 02:17:07;;;;;;;6.57;2.47;;;13.30;85.70;;;;;;5105252;27;20095;-72
2023/06/05 02:19:33;;;;;;;6.95;2.67;;;13.30;86.10;;;;;;5112102;28;20032;-75
2023/06/05 02:21:59;;;;;;;3.15;2.00;;;13.20;86.40;;;;;;5113294;28;20066;-75
2023/06/05 02:24:27;;;;;;;3.22;2.20;;;13.20;86.80;;;;;;5111448;28;20055;-76
2023/06/05 02:26:53;;;;;;;2.30;2.10;;;13.10;87.00;;;;;;5112960;28;20385;-75
2023/06/05 02:29:18;;;;;;;4.80;2.15;;;13.10;87.10;;;;;;5103469;28;20034;-75
2023/06/05 02:31:44;;;;;;;4.75;2.40;;;13.10;87.30;;;;;;5102887;28;20020;-75
2023/06/05 02:34:10;;;;;;;3.80;2.40;;;13.00;87.40;;;;;;5098518;27;20039;-76
2023/06/05 02:36:36;;;;;;;3.97;2.53;;;13.00;87.30;;;;;;5107953;28;20031;-76
2023/06/05 02:39:04;;;;;;;4.93;2.35;;;13.00;87.70;;;;;;5112490;28;20032;-75
2023/06/05 02:41:30;;;;;;;2.15;1.90;;;12.90;87.90;;;;;;5111967;28;20031;-75
2023/06/05 02:43:56;;;;;;;3.10;2.20;;;12.80;88.20;;;;;;5112486;28;20380;-75
2023/06/05 02:46:24;;;;;;;2.45;1.90;;;12.70;88.70;;;;;;5111974;28;20035;-74
2023/06/05 02:48:53;;;;;;;3.50;1.70;;;12.70;89.30;;;;;;5112328;28;20034;-74
2023/06/05 02:51:18;;;;;;;2.67;1.95;;;12.60;89.50;;;;;;5107961;27;20464;-74
2023/06/05 02:53:44;;;;;;;3.95;2.38;;;12.60;89.80;;;;;;5111714;28;20031;-73
2023/06/05 02:56:10;;;;;;;2.75;1.90;;;12.60;90.00;;;;;;5108639;28;20369;-75
2023/06/05 02:58:37;;;;;;;4.05;2.40;;;12.70;91.10;;;;;;5093483;28;20375;-75
2023/06/05 03:01:03;;;;;;;3.65;2.60;;;12.60;94.70;;;;;;5103046;28;20462;-76
2023/06/05 03:03:31;;;;;;;4.70;2.28;;;12.50;90.30;;;;;;5104031;28;20035;-75
2023/06/05 03:06:04;;;;;;;4.28;3.20;;;12.60;90.40;;;;;;5092219;28;20028;-74
2023/06/05 03:08:35;;;;;;;4.38;2.25;;;12.60;90.50;;;;;;5099962;27;20020;-73
2023/06/05 03:11:00;;;;;;;;;;;12.60;90.50;;;;;;5109522;28;20031;-73
2023/06/05 03:13:27;;;;;;;2.97;2.22;;;12.60;90.50;;;;;;5092196;28;20384;-74
2023/06/05 03:15:56;;;;;;;2.90;2.20;;;12.60;90.40;;;;;;5092053;28;20101;-75
2023/06/05 03:18:25;;;;;;;2.95;2.03;;;12.60;90.50;;;;;;5090690;28;20048;-73
2023/06/05 03:20:54;;;;;;;2.90;2.42;;;12.60;95.10;;;;;;5103591;28;20487;-75
2023/06/05 03:23:24;;;;;;;4.13;2.23;;;12.60;97.60;;;;;;5090815;28;20028;-73
2023/06/05 03:25:51;;;;;;;3.47;2.13;;;;;;;;;;5097514;28;20034;-74
2023/06/05 03:28:17;;;;;;;3.53;2.47;;;;;;;;;;5099390;28;20410;-68
2023/06/05 03:30:43;;;;;;;2.90;2.60;;;;;;;;;;5092607;28;20473;-73
2023/06/05 03:33:09;;;;;;;4.80;2.70;;;;;;;;;;5111834;28;20024;-76
2023/06/05 03:35:35;;;;;;;5.63;2.55;;;;;;;;;;5097146;28;20024;-74
2023/06/05 03:38:01;;;;;;;4.68;2.53;;;;;;;;;;5091330;28;20030;-74
2023/06/05 03:40:27;;;;;;;2.70;2.20;;;;;;;;;;5103777;28;20096;-75
2023/06/05 03:42:53;;;;;;;3.47;2.28;;;;;;;;;;5092028;28;20078;-76
2023/06/05 03:45:19;;;;;;;3.00;2.45;;;;;;;;;;5100707;28;20028;-75
2023/06/05 03:47:48;;;;;;;3.40;2.15;;;;;;;;;;5096775;28;20030;-74
2023/06/05 03:50:15;;;;;;;3.47;2.30;;;;;;;;;;5101398;28;20676;-68
2023/06/05 03:52:41;;;;;;;4.82;2.28;;;;;;;;;;5098302;28;20088;-73
2023/06/05 03:55:08;;;;;;;5.20;2.38;;;;;;;;;;5104602;28;20035;-75
2023/06/05 03:57:34;;;;;;;5.15;2.53;;;;;;;;;;5091072;28;20036;-75
2023/06/05 04:00:00;;;;;;;3.95;2.33;;;;;;;;;;5104612;28;20146;-74
2023/06/05 04:02:26;;;;;;;4.57;2.70;;;;;;;;;;5097733;28;20027;-74
2023/06/05 04:04:52;;;;;;;6.47;2.40;;;;;;;;;;5100696;28;20032;-75
2023/06/05 04:07:18;;;;;;;3.97;2.53;;;;;;;;;;5111017;28;20373;-74
2023/06/05 04:09:45;;;;;;;3.83;2.05;;;;;;;;;;5101931;28;20030;-74
2023/06/05 04:12:10;;;;;;;4.53;2.22;;;;;;;;;;5111331;28;20412;-75
2023/06/05 04:14:38;;;;;;;5.28;2.40;;;;;;;;;;5097341;28;20021;-74
2023/06/05 04:17:04;;;;;;;3.20;1.92;;;;;;;;;;5103906;28;20036;-75
2023/06/05 04:19:30;;;;;;;6.10;2.58;;;;;;;;;;5089558;28;20362;-74
2023/06/05 04:21:56;;;;;;;3.75;2.10;;;;;;;;;;5091349;28;20050;-75
2023/06/05 04:24:25;;;;;;;2.60;2.22;;;;;;;;;;5090767;28;20031;-74
2023/06/05 04:26:51;;;;;;;3.75;2.38;;;;;;;;;;5104698;28;20039;-75
2023/06/05 04:29:18;;;;;;;4.63;2.78;;;;;;;;;;5094376;28;20024;-74
2023/06/05 04:31:45;;;;;;;4.85;2.40;;;;;;;;;;5098257;28;20491;-73
2023/06/05 04:34:11;;;;;;;4.25;2.85;;;;;;;;;;5098977;28;20100;-73
2023/06/05 04:36:37;;;;;;;4.22;2.30;;;;;;;;;;5095650;28;20098;-73
2023/06/05 04:39:03;;;;;;;4.25;2.50;;;;;;;;;;5113935;28;20527;-74
2023/06/05 04:41:32;;;;;;;6.05;2.88;;;;;;;;;;5114410;28;20031;-73
2023/06/05 04:43:59;;;;;;;4.28;2.85;;;;;;;;;;5111803;28;20023;-69
2023/06/05 04:46:25;;;;;;;8.32;3.22;;;;;;;;;;5103437;28;20028;-70
2023/06/05 04:48:54;;;;;;;5.68;3.13;;;;;;;;;;5097888;28;20043;-71
2023/06/05 04:51:20;;;;;;;6.57;3.47;;;;;;;;;;5093830;28;20035;-71
2023/06/05 04:53:50;;;;;;;5.97;3.20;;;;;;;;;;5103181;28;20031;-72
2023/06/05 04:56:16;;;;;;;5.10;2.70;;;;;;;;;;5100819;28;20024;-70
2023/06/05 04:58:42;;;;;;;4.85;3.00;;;;;;;;;;5099883;27;20080;-76
2023/06/05 05:01:09;;;;;;;7.68;3.15;;;;;;;;;;5097927;28;20157;-75
2023/06/05 05:03:35;;;;;;;7.70;3.28;;;;;;;;;;5105458;28;20047;-74
2023/06/05 05:06:01;;;;;;;4.40;2.90;;;;;;;;;;5108493;28;20098;-72
2023/06/05 05:08:27;;;;;;;4.85;3.15;;;;;;;;;;5104030;28;20047;-74
2023/06/05 05:10:53;;;;;;;4.80;2.80;;;;;;;;;;5105752;28;20402;-72
2023/06/05 05:13:19;;;;;;;4.47;2.80;;;;;;;;;;5102475;28;20046;-71
2023/06/05 05:15:46;;;;;;;4.57;3.65;;;;;;;;;;5101727;28;20138;-74
2023/06/05 05:18:12;;;;;;;5.90;3.25;;;;;;;;;;5097464;27;20043;-73
2023/06/05 05:20:39;;;;;;;8.60;3.72;;;;;;;;;;5098029;27;20020;-73
2023/06/05 05:23:07;;;;;;;5.35;3.33;;;;;;;;;;5102141;27;20035;-75
2023/06/05 05:25:33;;;;;;;6.88;3.17;;;;;;;;;;5107903;28;20038;-72
2023/06/05 05:28:00;;;;;;;5.97;3.40;;;;;;;;;;5104255;28;20032;-74
2023/06/05 05:30:25;;;;;;;8.82;3.55;;;;;;;;;;5103702;28;20016;-73
2023/06/05 05:32:52;;;;;;;8.45;4.03;;;;;;;;;;5098368;27;20024;-71
2023/06/05 05:35:18;;;;;;;8.85;4.00;;;;;;;;;;5100796;28;20043;-72
2023/06/05 05:37:43;;;;;;;9.15;4.20;;;;;;;;;;5106947;28;20055;-73
2023/06/05 05:40:10;;;;;;;9.63;4.22;;;;;;;;;;5106824;28;20068;-73
2023/06/05 05:42:36;;;;;;;10.10;4.10;;;;;;;;;;5100059;28;20023;-73
2023/06/05 05:45:02;;;;;;;9.02;4.20;;;;;;;;;;5098913;28;20526;-72
2023/06/05 05:47:28;;;;;;;7.28;2.75;;;;;;;;;;5099985;28;20032;-71
2023/06/05 05:49:54;;;;;;;5.63;2.97;;;;;;;;;;5108989;27;20035;-72
2023/06/05 05:52:22;;;;;;;5.18;2.70;;;;;;;;;;5094047;28;20078;-72
2023/06/05 05:54:48;;;;;;;4.95;2.88;;;;;;;;;;5110662;28;20092;-76
2023/06/05 05:57:14;;;;;;;3.55;2.72;;;;;;;;;;5100350;28;20023;-69
2023/06/05 05:59:42;;;;;;;7.85;3.20;;;;;;;;;;5113077;28;20043;-73
2023/06/05 06:02:09;;;;;;;7.57;3.95;;;;;;;;;;5094184;28;20097;-75
2023/06/05 06:04:35;;;;;;;10.77;4.57;;;;;;;;;;5104712;28;20020;-73
2023/06/05 06:07:02;;;;;;;10.70;4.30;;;;;;;;;;5110719;28;20035;-81
2023/06/05 06:09:28;;;;;;;10.27;4.05;;;;;;;;;;5101002;28;20020;-74
2023/06/05 06:11:55;;;;;;;5.57;3.42;;;;;;;;;;5103780;28;20448;-75
2023/06/05 06:14:22;;;;;;;6.22;3.50;;;;;;;;;;5091109;28;20024;-72
2023/06/05 06:16:49;;;;;;;5.47;3.13;;;;;;;;;;5092693;28;20125;-73
2023/06/05 06:19:16;;;;;;;8.05;2.92;;;;;;;;;;5085702;28;20082;-72
2023/06/05 06:21:42;;;;;;;6.82;3.42;;;;;;;;;;5092473;28;20024;-72
2023/06/05 06:24:08;;;;;;;5.97;3.28;;;;;;;;;;5091044;28;20823;-72
2023/06/05 06:26:37;;;;;;;10.27;3.55;;;;;;;;;;5090790;28;20119;-71
2023/06/05 06:29:03;;;;;;;9.98;3.30;;;;;;;;;;5087769;28;20017;-69
2023/06/05 06:31:29;;;;;;;8.40;3.40;;;;;;;;;;5083065;28;20107;-70
2023/06/05 06:33:55;;;;;;;10.55;2.90;;;;;;;;;;5093195;28;20099;-70
2023/06/05 06:36:22;;;;;;;6.65;2.95;;;;;;;;;;5087821;28;20020;-69
2023/06/05 06:38:48;;;;;;;7.63;3.42;;;;;;;;;;5091177;28;20022;-69
2023/06/05 06:41:14;;;;;;;8.73;3.30;;;;;;;;;;5089912;28;20385;-67
2023/06/05 06:43:40;;;;;;;6.68;3.22;;;;;;;;;;5089851;28;20028;-72
2023/06/05 06:46:06;;;;;;;3.67;2.67;;;;;;;;;;5090003;28;20099;-69
2023/06/05 06:48:32;;;;;;;9.52;2.97;;;;;;;;;;5089527;28;20669;-69
2023/06/05 06:51:03;;;;;;;6.13;2.90;;;;;;;;;;5094644;28;20036;-69
2023/06/05 06:53:34;;;;;;;5.50;3.20;;;;;;;;;;5089192;28;20127;-69
2023/06/05 06:56:04;;;;;;;6.43;2.83;;;;;;;;;;5088838;28;20020;-69
2023/06/05 06:58:33;;;;;;;5.85;3.50;;;;;;;;;;5087599;28;20016;-70
2023/06/05 07:00:59;;;;;;;4.53;3.28;;;18.70;99.90;;;;;;5090188;28;20024;-69
2023/06/05 07:03:25;;;;;;;7.70;3.50;;;18.80;90.50;;;;;;5088940;28;20472;-70
2023/06/05 07:05:51;;;;;;;8.80;3.30;;;19.00;79.40;;;;;;5090188;28;20139;-69
2023/06/05 07:08:16;;;;;;;8.30;3.38;;;19.10;78.90;;;;;;5089495;28;20055;-68
2023/06/05 07:10:42;;;;;;;10.32;3.70;;;19.20;78.90;;;;;;5090141;28;20043;-69
2023/06/05 07:13:07;;;;;;;6.18;3.63;;;19.40;79.10;;;;;;5115418;27;20126;-69
2023/06/05 07:15:33;;;;;;;7.47;3.80;;;19.40;78.00;;;;;;5117474;27;20043;-69
2023/06/05 07:17:59;;;;;;;7.63;3.95;;;19.40;77.80;;;;;;5116119;27;20088;-69
2023/06/05 07:20:25;;;;;;;10.00;3.92;;;19.40;78.20;;;;;;5115360;27;20019;-69
2023/06/05 07:22:50;;;;;;;8.40;3.50;;;19.30;78.60;;;;;;5125803;28;20019;-69
2023/06/05 07:25:17;;;;;;;7.97;2.92;;;19.30;78.50;;;;;;5114961;28;20208;-70
2023/06/05 07:27:44;;;;;;;7.65;3.42;;;19.40;78.50;;;;;;5121187;28;20031;-70
2023/06/05 07:30:10;;;;;;;6.65;3.40;;;19.40;78.60;;;;;;5115251;28;20471;-71
2023/06/05 07:32:35;;;;;;;8.15;3.25;;;19.50;78.50;;;;;;5123685;28;20023;-70
2023/06/05 07:35:02;;;;;;;12.05;3.78;;;19.70;78.50;;;;;;5119902;28;20038;-70
2023/06/05 07:37:27;;;;;;;6.28;3.40;;;19.80;78.80;;;;;;5115651;28;20031;-70
2023/06/05 07:39:54;;;;;;;6.30;3.60;;;19.80;78.60;;;;;;5124985;28;20028;-70
2023/06/05 07:42:19;;;;;;;7.60;3.67;;;20.00;78.30;;;;;;5123559;28;20007;-70
2023/06/05 07:44:45;;;;;;;7.13;3.80;;;20.00;78.40;;;;;;5116675;28;20027;-70
2023/06/05 07:47:10;;;;;;;9.15;3.67;;;20.10;78.20;;;;;;5111428;28;20038;-70
2023/06/05 07:49:36;;;;;;;7.18;3.72;;;20.30;79.70;;;;;;5088994;28;20122;-70
2023/06/05 07:52:02;;;;;;;5.57;3.78;;;20.50;78.90;;;;;;5120905;28;20032;-70
2023/06/05 07:54:27;;;;;;;6.13;3.80;;;20.60;78.70;;;;;;5112734;28;20034;-70
2023/06/05 07:56:54;;;;;;;4.53;3.78;;;20.70;78.70;;;;;;5118108;28;20392;-70
2023/06/05 07:59:24;;;;;;;6.97;3.60;;;20.90;78.70;;;;;;5120230;28;20369;-70
2023/06/05 08:01:50;;;;;;;5.95;4.15;;;21.00;79.40;;;;;;5116545;28;20028;-70
2023/06/05 08:04:17;;;;;;;4.70;4.00;;;21.10;78.80;;;;;;5107767;28;20111;-70
2023/06/05 08:06:43;;;;;;;7.40;4.43;;;21.30;79.70;;;;;;5107653;28;20073;-70
2023/06/05 08:09:12;;;;;;;5.68;4.13;;;21.50;78.80;;;;;;5107717;28;20456;-70
2023/06/05 08:11:38;;;;;;;4.75;3.58;;;21.60;78.50;;;;;;5107361;28;20051;-70
2023/06/05 08:14:08;;;;;;;8.00;3.92;;;21.70;78.20;;;;;;5107234;28;20031;-70
2023/06/05 08:16:34;;;;;;;7.63;3.90;;;21.80;77.60;;;;;;5116017;27;20019;-70
2023/06/05 08:19:01;;;;;;;7.25;4.05;;;21.90;77.90;;;;;;5113409;28;20027;-70
2023/06/05 08:21:27;;;;;;;15.60;5.00;;;22.00;78.10;;;;;;5113011;28;20023;-70
2023/06/05 08:23:52;;;;;;;19.95;4.78;;;22.10;78.10;;;;;;5124328;27;20464;-70
2023/06/05 08:26:19;;;;;;;8.95;4.43;;;22.30;78.40;;;;;;5124257;27;20030;-70
2023/06/05 08:28:45;;;;;;;12.10;4.22;;;22.60;86.00;;;;;;5103331;28;20416;-70
2023/06/05 08:31:11;;;;;;;6.60;4.00;;;22.70;77.70;;;;;;5110491;28;20110;-70
2023/06/05 08:33:37;;;;;;;7.72;4.57;;;22.80;77.30;;;;;;5104225;27;20034;-70
2023/06/05 08:36:04;;;;;;;7.07;4.47;;;23.90;81.90;;;;;;5126194;27;20062;-69
2023/06/05 08:38:30;;;;;;;270.88;15.35;;;23.20;80.10;;;;;;5124488;27;20015;-70
2023/06/05 08:41:07;;;;;;;8.93;4.63;;;23.10;77.30;;;;;;5113414;28;20055;-70
2023/06/05 08:43:40;;;;;;;7.65;4.30;;;23.20;77.20;;;;;;5111805;28;20030;-69
2023/06/05 08:46:08;;;;;;;7.22;3.90;;;23.20;77.30;;;;;;5113724;28;20097;-69
2023/06/05 08:48:40;;;;;;;7.57;4.10;;;23.00;77.50;;;;;;5118854;27;20084;-70
2023/06/05 08:51:08;;;;;;;11.60;4.70;;;23.00;78.00;;;;;;5113840;28;20373;-70
2023/06/05 08:53:35;;;;;;;8.45;4.85;;;23.00;77.60;;;;;;5111071;27;20356;-70
2023/06/05 08:56:02;;;;;;;7.55;4.43;;;23.10;77.60;;;;;;5118339;27;20035;-71
2023/06/05 08:58:28;;;;;;;9.88;4.95;;;23.20;77.30;;;;;;5111311;27;20031;-70
2023/06/05 09:00:54;;;;;;;7.43;4.03;;;23.40;77.00;;;;;;5088103;28;20023;-68
2023/06/05 09:03:20;;;;;;;9.98;4.78;;;23.40;76.70;;;;;;5096853;28;20031;-70
2023/06/05 09:05:47;;;;;;;8.32;4.75;;;23.30;77.90;;;;;;5109415;27;20050;-68
2023/06/05 09:08:14;;;;;;;10.48;4.90;;;23.20;78.00;;;;;;5097332;28;20076;-68
2023/06/05 09:10:39;;;;;;;15.27;5.15;;;23.10;78.60;;;;;;5108170;27;20047;-70
2023/06/05 09:13:05;;;;;;;7.60;4.80;;;23.10;78.80;;;;;;5112173;28;20090;-70
2023/06/05 09:15:33;;;;;;;9.25;4.28;;;23.20;78.60;;;;;;5111603;28;20026;-70
2023/06/05 09:18:17;;;;;;;5.57;4.45;;;23.30;78.30;;;;;;5109579;28;20028;-69
2023/06/05 09:20:47;;;;;;;11.18;4.35;;;23.50;78.00;;;;;;5114904;27;20024;-70
2023/06/05 09:23:29;;;;;;;13.38;5.10;;;23.70;79.00;;;;;;5111358;28;20047;-68
2023/06/05 09:25:57;;;;;;;8.90;4.53;;;23.90;76.60;;;;;;5111551;27;20030;-71
2023/06/05 09:28:23;;;;;;;17.42;5.28;;;24.00;76.70;;;;;;5107224;28;20476;-70
2023/06/05 09:30:58;;;;;;;6.57;4.55;;;24.10;76.60;;;;;;5131083;27;20094;-70
2023/06/05 09:33:26;;;;;;;9.20;4.97;;;24.30;76.40;;;;;;5124904;27;20088;-71
2023/06/05 09:36:14;;;;;;;8.52;4.65;;;24.20;75.90;;;;;;5120214;27;20077;-70
2023/06/05 09:38:41;;;;;;;6.55;3.53;;;24.00;76.30;;;;;;5098932;27;20035;-71
2023/06/05 09:41:09;;;;;;;6.93;4.15;;;24.00;76.60;;;;;;5123407;27;20030;-70
2023/06/05 09:43:36;;;;;;;44.85;5.15;;;24.20;76.50;;;;;;5118875;27;20024;-71
2023/06/05 09:46:13;;;;;;;7.30;4.95;;;24.30;76.60;;;;;;5118435;27;20032;-71
2023/06/05 09:48:40;;;;;;;17.00;4.65;;;24.50;76.40;;;;;;5118664;27;20022;-70
2023/06/05 09:51:13;;;;;;;52.03;5.55;;;24.60;76.10;;;;;;5125654;27;20027;-71
2023/06/05 09:53:45;;;;;;;8.23;4.40;;;24.70;76.60;;;;;;5116934;27;20048;-70
2023/06/05 09:56:22;;;;;;;5.68;3.83;;;24.90;75.70;;;;;;5115392;27;20031;-70
2023/06/05 09:58:49;;;;;;;9.98;5.03;;;24.90;76.00;;;;;;5127962;27;20831;-72
2023/06/05 10:01:24;;;;;;;7.15;4.47;;;25.10;75.60;;;;;;5119680;27;20043;-68
2023/06/05 10:04:03;;;;;;;9.77;4.70;;;25.10;74.80;;;;;;5106084;27;20034;-69
2023/06/05 10:06:29;;;;;;;11.03;4.10;;;24.60;74.70;;;;;;5112910;27;20476;-71
2023/06/05 10:08:56;;;;;;;6.18;4.68;;;24.70;75.70;;;;;;5119618;27;20042;-70
2023/06/05 10:11:24;;;;;;;12.35;4.70;;;25.00;75.20;;;;;;5113189;27;20489;-70
2023/06/05 10:13:51;;;;;;;4.28;3.88;;;25.10;72.90;;;;;;5124656;27;20442;-70
2023/06/05 10:16:18;;;;;;;5.82;3.95;;;25.20;72.90;;;;;;5124309;27;20074;-69
2023/06/05 10:18:47;;;;;;;17.92;4.78;;;25.20;72.70;;;;;;5116019;27;20076;-71
2023/06/05 10:21:17;;;;;;;5.90;4.70;;;25.20;72.40;;;;;;5105904;27;20038;-68
2023/06/05 10:23:49;;;;;;;5.57;4.25;;;25.10;72.00;;;;;;5095008;28;20036;-69
2023/06/05 10:26:37;;;;;;;5.07;4.10;;;25.10;71.20;;;;;;5096135;28;20364;-68
2023/06/05 10:29:16;;;;;;;4.82;3.90;;;25.20;70.20;;;;;;5094779;28;20032;-69
2023/06/05 10:31:52;;;;;;;5.50;3.40;;;25.10;69.40;;;;;;5096242;27;20043;-69
2023/06/05 10:34:18;;;;;;;7.95;3.60;;;25.10;69.70;;;;;;5103704;28;20031;-70
2023/06/05 10:37:21;;;;;;;6.28;3.88;;;25.00;68.80;;;;;;5112053;28;20028;-69
2023/06/05 10:39:51;;;;;;;9.98;3.88;;;24.90;68.30;;;;;;5111061;28;20028;-69
2023/06/05 10:42:28;;;;;;;5.25;3.58;;;24.80;68.30;;;;;;5111118;28;20031;-70
2023/06/05 10:44:54;;;;;;;8.95;4.20;;;24.80;68.00;;;;;;5110913;28;20059;-70
2023/06/05 10:47:32;;;;;;;5.55;3.67;;;24.80;67.90;;;;;;5111015;28;20024;-70
2023/06/05 10:50:19;;;;;;;7.22;3.33;;;25.00;68.10;;;;;;5097792;28;20047;-71
2023/06/05 10:52:49;;;;;;;4.72;3.47;;;25.40;68.40;;;;;;5097530;28;20027;-72
2023/06/05 10:55:15;;;;;;;8.27;3.97;;;25.90;66.80;;;;;;5091419;28;20050;-69
2023/06/05 10:58:03;;;;;;;5.43;3.72;;;26.20;65.90;;;;;;5105934;28;20086;-72
2023/06/05 11:00:29;;;;;;;4.82;3.38;;;26.30;65.00;;;;;;5110038;28;20019;-73
2023/06/05 11:02:55;;;;;;;4.80;3.25;;;26.30;88.30;;;;;;5111232;28;20073;-74
2023/06/05 11:05:21;;;;;;;3.63;3.33;;;26.30;88.20;;;;;;5110302;28;20023;-75
2023/06/05 11:07:48;;;;;;;5.13;3.90;;;26.40;88.50;;;;;;5110959;28;20020;-72
2023/06/05 11:10:20;;;;;;;4.10;3.42;;;26.20;87.40;;;;;;5104617;28;20024;-71
2023/06/05 11:12:46;;;;;;;9.70;4.10;;;26.00;87.90;;;;;;5091809;28;20079;-71
2023/06/05 11:15:39;;;;;;;5.40;3.80;;;25.90;88.20;;;;;;5077996;28;20052;-75
2023/06/05 11:18:27;;;;;;;7.32;3.78;;;25.70;88.40;;;;;;5078795;28;20116;-73
2023/06/05 11:20:53;;;;;;;7.40;3.40;;;25.60;88.00;;;;;;5073545;28;20122;-79
2023/06/05 11:23:20;;;;;;;6.07;3.05;;;25.60;88.60;;;;;;5084354;28;20377;-77
2023/06/05 11:25:46;;;;;;;5.47;3.75;;;25.60;87.90;;;;;;5070944;28;20585;-75
2023/06/05 11:28:12;;;;;;;5.43;3.25;;;25.70;87.40;;;;;;5078380;28;20099;-79
2023/06/05 11:30:43;;;;;;;4.30;3.70;;;25.90;87.60;;;;;;5081586;28;20028;-72
2023/06/05 11:33:14;;;;;;;5.28;3.78;;;26.20;85.70;;;;;;5096314;28;20077;-78
2023/06/05 11:35:41;;;;;;;7.13;3.33;;;26.60;63.50;;;;;;5086907;28;20469;-77
2023/06/05 11:38:10;;;;;;;5.28;3.88;;;27.00;63.50;;;;;;5101458;28;20025;-78
2023/06/05 11:40:36;;;;;;;10.07;3.83;;;;;;;;;;5097522;28;20020;-77
2023/06/05 11:43:07;;;;;;;4.85;3.60;;;27.40;61.00;;;;;;5104615;28;20048;-78
2023/06/05 11:45:34;;;;;;;8.15;3.85;;;27.30;61.70;;;;;;5101558;28;20051;-78
2023/06/05 11:48:10;;;;;;;6.95;4.40;;;27.00;61.40;;;;;;5095906;28;20033;-79
2023/06/05 11:50:51;;;;;;;4.13;3.63;;;26.40;61.80;;;;;;5079027;28;20044;-79
2023/06/05 11:53:18;;;;;;;3.78;3.35;;;26.20;62.70;;;;;;5089515;28;20020;-76
2023/06/05 11:55:54;;;;;;;6.10;3.50;;;26.40;62.10;;;;;;5087842;28;20115;-80
2023/06/05 11:58:23;;;;;;;7.60;3.80;;;26.70;62.00;;;;;;5080732;28;20025;-78
2023/06/05 12:00:50;;;;;;;6.93;4.00;;;27.10;61.40;;;;;;5084730;28;20513;-78
2023/06/05 12:03:22;;;;;;;5.93;3.83;;;27.40;61.80;;;;;;5091743;28;20123;-76
2023/06/05 12:05:48;;;;;;;5.20;3.50;;;27.70;60.90;;;;;;5075765;28;20028;-79
2023/06/05 12:08:32;;;;;;;7.95;3.67;;;27.90;60.80;;;;;;5087093;28;20484;-76
2023/06/05 12:10:57;;;;;;;6.03;3.72;;;28.20;59.90;;;;;;5080873;28;20066;-80
2023/06/05 12:13:43;;;;;;;7.90;3.97;;;28.50;60.10;;;;;;5086568;28;20079;-81
2023/06/05 12:16:09;;;;;;;8.57;3.90;;;28.80;90.10;;;;;;5080910;28;20043;-77
2023/06/05 12:18:34;;;;;;;5.60;4.15;;;28.90;58.60;;;;;;5092837;28;20024;-80
2023/06/05 12:21:01;;;;;;;3.97;3.28;;;28.30;59.00;;;;;;5082137;28;20030;-78
2023/06/05 12:23:31;;;;;;;5.10;3.88;;;27.90;58.80;;;;;;5089921;28;20074;-78
2023/06/05 12:26:02;;;;;;;6.95;4.13;;;27.40;59.00;;;;;;5091061;28;20047;-80
2023/06/05 12:28:29;;;;;;;5.93;4.13;;;27.40;60.00;;;;;;5083262;28;20028;-79
2023/06/05 12:30:55;;;;;;;4.10;3.58;;;27.60;60.20;;;;;;5086109;28;20077;-80
2023/06/05 12:33:24;;;;;;;7.15;4.30;;;27.90;59.60;;;;;;5079016;28;20471;-82
2023/06/05 12:36:10;;;;;;;9.93;3.30;;;28.10;58.50;;;;;;5075086;28;20559;-82
2023/06/05 12:38:41;;;;;;;7.30;4.10;;;28.20;59.50;;;;;;5086690;28;20825;-78
2023/06/05 12:41:08;;;;;;;5.22;3.92;;;28.10;57.80;;;;;;5083809;28;20020;-80
2023/06/05 12:43:36;;;;;;;5.63;3.80;;;28.00;57.70;;;;;;5075553;28;20020;-83
2023/06/05 12:46:03;;;;;;;8.00;3.80;;;27.60;58.40;;;;;;5088126;28;20040;-82
2023/06/05 12:48:28;;;;;;;4.80;4.10;;;27.50;58.50;;;;;;5089321;28;20465;-81
2023/06/05 12:50:56;;;;;;;8.95;4.05;;;27.50;57.80;;;;;;5086100;28;20039;-83
2023/06/05 12:53:22;;;;;;;7.05;3.90;;;27.70;59.00;;;;;;5088877;28;20388;-82
2023/06/05 12:55:47;;;;;;;6.15;4.03;;;27.90;58.10;;;;;;5077418;28;20034;-82
2023/06/05 12:58:13;;;;;;;5.05;4.18;;;28.20;57.60;;;;;;5089190;28;20030;-75
2023/06/05 13:00:38;;;;;;;5.38;3.90;;;28.60;57.10;;;;;;5091427;28;20435;-80
2023/06/05 13:03:04;;;;;;;5.10;3.58;;;29.00;56.60;;;;;;5088727;28;20028;-80
2023/06/05 13:05:33;;;;;;;6.30;3.90;;;29.30;56.20;;;;;;5084659;28;20034;-79
2023/06/05 13:07:58;;;;;;;4.85;4.10;;;29.40;55.40;;;;;;5074215;28;20031;-79
2023/06/05 13:10:25;;;;;;;5.65;4.22;;;29.70;56.40;;;;;;5085979;28;20115;-79
2023/06/05 13:12:51;;;;;;;7.53;4.47;;;29.40;54.70;;;;;;5093251;28;20036;-77
2023/06/05 13:15:16;;;;;;;6.30;4.72;;;29.40;55.10;;;;;;5110673;28;20052;-74
2023/06/05 13:17:43;;;;;;;6.28;4.32;;;29.20;55.40;;;;;;5105604;28;20052;-78
2023/06/05 13:20:12;;;;;;;5.18;4.65;;;28.90;55.30;;;;;;5096821;28;20385;-79